Time;durP1;ratioP1;P1;durP2;ratioP2;P2;SDS_P1;SDS_P2;PMS_P1;PMS_P2;Temp;Humidity;BMP_temperature;BMP_pressure;BME280_temperature;BME280_humidity;BME280_pressure;Samples;Min_cycle;Max_cycle;Signal;HPM_P1;HPM_P2
2023/08/16 00:01:20;;;;;;;6.00;1.63;;;16.00;99.90;;;;;;5053899;28;20174;-78
2023/08/16 00:03:46;;;;;;;6.68;1.50;;;16.00;99.90;;;;;;5053626;28;20176;-77
2023/08/16 00:06:13;;;;;;;7.43;1.50;;;16.00;99.90;;;;;;5052524;28;20547;-77
2023/08/16 00:08:40;;;;;;;4.65;1.58;;;15.90;99.90;;;;;;5054097;28;20287;-78
2023/08/16 00:11:07;;;;;;;3.03;1.20;;;15.90;99.90;;;;;;5052503;28;20192;-79
2023/08/16 00:13:33;;;;;;;6.00;1.30;;;15.90;99.90;;;;;;5053589;28;20315;-78
2023/08/16 00:16:00;;;;;;;5.07;1.50;;;15.90;99.90;;;;;;5053276;28;20177;-80
2023/08/16 00:18:27;;;;;;;2.13;1.40;;;15.90;99.90;;;;;;5064886;28;20196;-78
2023/08/16 00:20:53;;;;;;;6.63;1.70;;;15.90;99.90;;;;;;5058469;28;20177;-81
2023/08/16 00:23:19;;;;;;;2.47;1.23;;;15.80;99.90;;;;;;5050445;28;20183;-81
2023/08/16 00:25:44;;;;;;;7.30;1.67;;;15.80;99.90;;;;;;5052127;28;20542;-81
2023/08/16 00:28:10;;;;;;;6.10;1.60;;;15.80;99.90;;;;;;5051272;28;20699;-80
2023/08/16 00:30:35;;;;;;;7.82;1.60;;;15.80;99.90;;;;;;5033471;28;20629;-81
2023/08/16 00:33:01;;;;;;;4.15;1.52;;;15.80;99.90;;;;;;5015658;28;20324;-81
2023/08/16 00:35:26;;;;;;;4.00;1.65;;;15.80;99.90;;;;;;5033093;28;20158;-81
2023/08/16 00:37:52;;;;;;;3.30;1.40;;;15.80;99.90;;;;;;5033481;28;20181;-81
2023/08/16 00:40:20;;;;;;;4.65;1.55;;;15.80;99.90;;;;;;5034767;28;20173;-81
2023/08/16 00:42:45;;;;;;;5.20;1.50;;;15.70;99.90;;;;;;5052990;28;20542;-82
2023/08/16 00:45:11;;;;;;;2.15;1.50;;;15.70;99.90;;;;;;5034844;28;20185;-83
2023/08/16 00:47:37;;;;;;;3.95;1.38;;;15.60;99.90;;;;;;5053669;28;20231;-83
2023/08/16 00:50:03;;;;;;;4.78;1.40;;;17.90;99.90;;;;;;5054771;28;20173;-83
2023/08/16 00:52:29;;;;;;;5.95;1.63;;;15.40;99.90;;;;;;5054577;28;20236;-83
2023/08/16 00:54:56;;;;;;;4.95;1.48;;;15.40;99.90;;;;;;5052447;28;20177;-83
2023/08/16 00:57:22;;;;;;;3.42;1.60;;;15.40;99.90;;;;;;5066408;28;20166;-82
2023/08/16 00:59:48;;;;;;;3.45;1.40;;;15.60;99.90;;;;;;5058526;28;20188;-82
2023/08/16 01:02:17;;;;;;;5.95;2.08;;;15.90;99.90;;;;;;5052583;28;20177;-82
2023/08/16 01:04:43;;;;;;;7.40;1.67;;;15.30;99.90;;;;;;5051326;28;20231;-82
2023/08/16 01:07:09;;;;;;;4.18;1.50;;;15.30;99.90;;;;;;5051213;28;20323;-82
2023/08/16 01:09:35;;;;;;;2.58;1.58;;;15.40;99.90;;;;;;5051522;28;20219;-82
2023/08/16 01:12:33;;;;;;;3.65;1.80;;;15.20;99.90;;;;;;5052292;28;20173;-81
2023/08/16 01:15:13;;;;;;;6.13;1.58;;;15.10;99.90;;;;;;5050267;28;20319;-82
2023/08/16 01:17:40;;;;;;;4.00;1.45;;;15.10;99.90;;;;;;5052251;28;20165;-82
2023/08/16 01:20:08;;;;;;;5.35;1.33;;;15.10;99.90;;;;;;5051932;28;20177;-82
2023/08/16 01:22:42;;;;;;;3.88;1.60;;;15.20;99.90;;;;;;5051946;28;20181;-81
2023/08/16 01:25:40;;;;;;;4.63;1.80;;;15.10;99.90;;;;;;5052415;28;20621;-81
2023/08/16 01:28:06;;;;;;;7.60;1.90;;;15.10;99.90;;;;;;5046644;28;20267;-82
2023/08/16 01:30:32;;;;;;;1.92;1.25;;;15.20;99.90;;;;;;5052199;28;20176;-82
2023/08/16 01:33:11;;;;;;;3.38;1.40;;;15.20;99.90;;;;;;5042556;28;20206;-81
2023/08/16 01:35:37;;;;;;;3.45;1.33;;;15.10;99.90;;;;;;5038166;28;20190;-81
2023/08/16 01:38:04;;;;;;;5.57;1.25;;;15.10;99.90;;;;;;5042104;28;20224;-81
2023/08/16 01:40:42;;;;;;;4.57;1.40;;;15.00;99.90;;;;;;5046182;28;20165;-81
2023/08/16 01:43:11;;;;;;;3.03;1.42;;;15.00;99.90;;;;;;5051958;28;20169;-78
2023/08/16 01:45:37;;;;;;;5.13;1.33;;;15.00;99.90;;;;;;5051563;28;20173;-78
2023/08/16 01:48:04;;;;;;;3.85;1.40;;;15.00;99.90;;;;;;5051799;28;20528;-79
2023/08/16 01:50:29;;;;;;;2.58;1.40;;;15.00;99.90;;;;;;5050632;28;20181;-79
2023/08/16 01:52:55;;;;;;;8.02;1.50;;;15.00;99.90;;;;;;5051748;28;20744;-79
2023/08/16 01:55:21;;;;;;;3.65;1.40;;;15.00;99.90;;;;;;5051841;28;20728;-79
2023/08/16 01:57:47;;;;;;;6.63;1.90;;;15.00;99.90;;;;;;5051178;28;20260;-79
2023/08/16 02:00:13;;;;;;;4.85;1.38;;;14.90;99.90;;;;;;5050580;28;20674;-79
2023/08/16 02:02:38;;;;;;;4.18;1.20;;;14.90;99.90;;;;;;5050259;28;20251;-79
2023/08/16 02:05:05;;;;;;;5.30;1.30;;;14.90;99.90;;;;;;5051604;28;20631;-79
2023/08/16 02:07:30;;;;;;;4.95;1.50;;;14.80;99.90;;;;;;5051567;28;20177;-79
2023/08/16 02:09:56;;;;;;;3.42;1.80;;;14.80;99.90;;;;;;5051535;28;20187;-79
2023/08/16 02:12:21;;;;;;;3.05;1.50;;;14.70;99.90;;;;;;5050168;28;20179;-78
2023/08/16 02:14:47;;;;;;;3.40;1.30;;;14.70;99.90;;;;;;5055756;28;20181;-77
2023/08/16 02:17:13;;;;;;;2.75;1.23;;;14.70;99.90;;;;;;5057552;28;20184;-79
2023/08/16 02:19:38;;;;;;;2.30;1.00;;;14.60;99.90;;;;;;5050138;28;20180;-79
2023/08/16 02:22:04;;;;;;;2.28;1.17;;;14.70;99.90;;;;;;5051077;28;20181;-78
2023/08/16 02:24:29;;;;;;;2.80;1.20;;;14.70;99.90;;;;;;5050803;28;20216;-78
2023/08/16 02:26:55;;;;;;;2.90;1.40;;;14.80;99.90;;;;;;5051303;28;20221;-78
2023/08/16 02:29:21;;;;;;;7.57;1.50;;;14.60;99.90;;;;;;5050985;28;20173;-78
2023/08/16 02:31:46;;;;;;;3.95;1.17;;;14.80;99.90;;;;;;5051213;28;20536;-78
2023/08/16 02:34:12;;;;;;;2.80;1.30;;;14.80;99.90;;;;;;5050847;28;20219;-78
2023/08/16 02:36:37;;;;;;;2.90;1.20;;;14.80;99.90;;;;;;5051209;28;20169;-78
2023/08/16 02:39:05;;;;;;;4.45;1.40;;;14.70;99.90;;;;;;5051234;28;20635;-80
2023/08/16 02:41:31;;;;;;;5.82;1.60;;;14.80;99.90;;;;;;5050977;28;20166;-79
2023/08/16 02:43:56;;;;;;;1.95;1.25;;;14.70;99.90;;;;;;5051183;28;20252;-80
2023/08/16 02:46:23;;;;;;;2.42;1.30;;;14.80;99.90;;;;;;5049744;28;20174;-79
2023/08/16 02:48:48;;;;;;;3.85;1.52;;;14.80;99.90;;;;;;5051128;28;20169;-79
2023/08/16 02:51:14;;;;;;;4.43;1.05;;;14.80;99.90;;;;;;5051056;28;20539;-79
2023/08/16 02:53:39;;;;;;;4.03;1.15;;;14.80;99.90;;;;;;5059775;28;20215;-78
2023/08/16 02:56:05;;;;;;;6.55;1.73;;;14.70;99.90;;;;;;5059649;28;20243;-79
2023/08/16 02:58:30;;;;;;;4.50;1.52;;;14.70;99.90;;;;;;5050804;28;20173;-78
2023/08/16 03:00:56;;;;;;;2.53;1.23;;;14.60;99.90;;;;;;5051257;28;20270;-80
2023/08/16 03:03:22;;;;;;;3.60;1.30;;;14.60;99.90;;;;;;5049656;28;20230;-80
2023/08/16 03:05:47;;;;;;;3.20;1.00;;;14.70;99.90;;;;;;5049537;28;20225;-81
2023/08/16 03:08:13;;;;;;;6.65;1.52;;;14.50;99.90;;;;;;5050722;28;20188;-81
2023/08/16 03:10:39;;;;;;;4.32;1.40;;;14.50;99.90;;;;;;5054517;28;20219;-80
2023/08/16 03:13:04;;;;;;;3.58;1.40;;;14.50;99.90;;;;;;5054658;28;20209;-80
2023/08/16 03:15:30;;;;;;;3.75;1.33;;;14.50;99.90;;;;;;5054439;28;20200;-80
2023/08/16 03:17:56;;;;;;;3.25;1.40;;;14.40;99.90;;;;;;5054201;28;20169;-79
2023/08/16 03:20:21;;;;;;;3.97;1.52;;;14.60;99.90;;;;;;5054629;28;20184;-80
2023/08/16 03:22:47;;;;;;;2.75;1.30;;;14.40;99.90;;;;;;5054498;28;20173;-80
2023/08/16 03:25:13;;;;;;;3.25;1.70;;;14.20;99.90;;;;;;5054616;28;20589;-78
2023/08/16 03:27:38;;;;;;;4.22;1.60;;;14.10;99.90;;;;;;5054192;28;20311;-79
2023/08/16 03:30:05;;;;;;;3.78;1.35;;;14.20;99.90;;;;;;5054138;28;20177;-78
2023/08/16 03:32:30;;;;;;;3.45;1.40;;;14.20;99.90;;;;;;5060353;28;20221;-77
2023/08/16 03:34:56;;;;;;;3.10;1.30;;;14.20;99.90;;;;;;5071881;28;20679;-79
2023/08/16 03:37:22;;;;;;;6.05;1.50;;;14.20;99.90;;;;;;5052668;28;20185;-79
2023/08/16 03:39:47;;;;;;;2.35;1.33;;;14.00;99.90;;;;;;5054485;28;20169;-78
2023/08/16 03:42:13;;;;;;;4.97;1.30;;;14.10;99.90;;;;;;5053907;28;20185;-78
2023/08/16 03:44:39;;;;;;;2.72;1.27;;;14.10;99.90;;;;;;5054160;28;20192;-79
2023/08/16 03:47:06;;;;;;;3.55;1.25;;;14.10;99.90;;;;;;5054790;28;20197;-79
2023/08/16 03:49:31;;;;;;;4.00;1.50;;;13.80;99.90;;;;;;5054910;28;20173;-80
2023/08/16 03:51:57;;;;;;;3.40;1.40;;;14.10;99.90;;;;;;5044129;28;20182;-80
2023/08/16 03:54:23;;;;;;;5.95;1.35;;;14.10;99.90;;;;;;5051136;28;20220;-79
2023/08/16 03:56:48;;;;;;;2.08;1.27;;;13.90;99.90;;;;;;5053542;28;20643;-80
2023/08/16 03:59:14;;;;;;;6.65;1.25;;;14.70;99.90;;;;;;5052235;28;20205;-80
2023/08/16 04:01:39;;;;;;;4.15;1.30;;;14.00;99.90;;;;;;5052628;28;20563;-80
2023/08/16 04:04:05;;;;;;;2.42;1.35;;;14.00;99.90;;;;;;5053365;28;20212;-80
2023/08/16 04:06:31;;;;;;;1.75;1.27;;;;;;;;;;5053076;28;20664;-80
2023/08/16 04:08:57;;;;;;;1.33;1.05;;;14.00;99.90;;;;;;5053550;28;20169;-79
2023/08/16 04:11:23;;;;;;;2.17;1.50;;;;;;;;;;5061746;28;20192;-79
2023/08/16 04:13:49;;;;;;;1.55;1.30;;;;;;;;;;5063564;28;20217;-80
2023/08/16 04:16:14;;;;;;;3.78;1.58;;;13.90;99.90;;;;;;5053266;28;20169;-80
2023/08/16 04:18:40;;;;;;;3.97;1.20;;;13.80;99.90;;;;;;5053759;28;20554;-79
2023/08/16 04:21:06;;;;;;;4.90;1.40;;;13.90;99.90;;;;;;5052948;28;20161;-80
2023/08/16 04:23:31;;;;;;;3.88;1.67;;;13.80;99.90;;;;;;5052350;28;20174;-81
2023/08/16 04:25:57;;;;;;;2.80;1.52;;;13.80;99.90;;;;;;5053210;28;20217;-81
2023/08/16 04:28:22;;;;;;;3.42;1.23;;;13.50;99.90;;;;;;5053399;28;20197;-80
2023/08/16 04:30:48;;;;;;;4.22;1.67;;;13.90;99.90;;;;;;5052056;28;20677;-81
2023/08/16 04:33:14;;;;;;;6.80;1.52;;;13.70;99.90;;;;;;5053184;28;20205;-81
2023/08/16 04:35:39;;;;;;;5.60;1.73;;;13.80;99.90;;;;;;5053067;28;20208;-81
2023/08/16 04:38:05;;;;;;;7.30;1.60;;;13.80;99.90;;;;;;5053313;28;20165;-81
2023/08/16 04:40:31;;;;;;;4.90;1.48;;;13.80;99.90;;;;;;5053323;28;20559;-81
2023/08/16 04:42:57;;;;;;;2.20;1.50;;;;;;;;;;5053031;28;20655;-81
2023/08/16 04:45:23;;;;;;;5.28;1.83;;;13.80;99.90;;;;;;5051517;28;20536;-81
2023/08/16 04:47:49;;;;;;;4.07;1.60;;;;;;;;;;5053055;28;20169;-81
2023/08/16 04:50:15;;;;;;;4.95;1.67;;;13.90;99.90;;;;;;5057930;28;20153;-81
2023/08/16 04:52:41;;;;;;;7.60;1.70;;;;;;;;;;5063788;28;20233;-79
2023/08/16 04:55:07;;;;;;;5.43;1.63;;;13.80;99.90;;;;;;5052964;28;20170;-80
2023/08/16 04:57:32;;;;;;;2.17;1.65;;;13.70;99.90;;;;;;5052989;28;20165;-79
2023/08/16 04:59:58;;;;;;;2.97;1.77;;;13.90;99.90;;;;;;5052757;28;20690;-79
2023/08/16 05:02:24;;;;;;;4.53;1.55;;;13.90;99.90;;;;;;5053088;28;20193;-78
2023/08/16 05:04:50;;;;;;;6.57;1.60;;;13.90;99.90;;;;;;5051316;28;20613;-77
2023/08/16 05:07:15;;;;;;;4.03;1.52;;;13.80;99.90;;;;;;5052395;28;20173;-77
2023/08/16 05:09:41;;;;;;;5.93;1.90;;;13.60;99.90;;;;;;5051427;28;20220;-79
2023/08/16 05:12:07;;;;;;;1.88;1.50;;;13.70;99.90;;;;;;5050801;28;20628;-79
2023/08/16 05:14:33;;;;;;;2.70;1.50;;;13.80;99.90;;;;;;5052271;28;20204;-80
2023/08/16 05:16:58;;;;;;;6.72;1.95;;;13.50;99.90;;;;;;5051804;28;20271;-79
2023/08/16 05:19:24;;;;;;;4.35;1.95;;;;;;;;;;5052101;28;20643;-80
2023/08/16 05:21:50;;;;;;;4.43;1.48;;;13.30;99.90;;;;;;5050409;28;20196;-80
2023/08/16 05:24:15;;;;;;;7.75;1.92;;;13.50;99.90;;;;;;5051293;28;20675;-79
2023/08/16 05:26:41;;;;;;;4.82;1.77;;;;;;;;;;5051989;28;20568;-79
2023/08/16 05:29:07;;;;;;;5.75;1.70;;;13.30;99.90;;;;;;5058679;28;20188;-79
2023/08/16 05:31:32;;;;;;;2.05;1.50;;;13.50;99.90;;;;;;5060532;28;20180;-83
2023/08/16 05:33:58;;;;;;;4.25;1.75;;;13.40;99.90;;;;;;5054103;28;20586;-82
2023/08/16 05:36:29;;;;;;;2.53;1.58;;;13.50;99.90;;;;;;5052647;28;20170;-82
2023/08/16 05:38:54;;;;;;;4.05;1.80;;;13.50;99.90;;;;;;5052338;28;20184;-80
2023/08/16 05:41:20;;;;;;;6.38;1.75;;;;;;;;;;5050867;28;20169;-79
2023/08/16 05:43:46;;;;;;;3.15;1.70;;;13.40;99.90;;;;;;5050659;28;20601;-78
2023/08/16 05:46:12;;;;;;;3.13;1.67;;;13.60;99.90;;;;;;5051665;28;20169;-78
2023/08/16 05:48:37;;;;;;;6.55;1.52;;;13.90;99.90;;;;;;5050688;28;20185;-77
2023/08/16 05:51:03;;;;;;;4.28;1.90;;;13.80;99.90;;;;;;5051806;28;20166;-76
2023/08/16 05:53:28;;;;;;;3.78;1.70;;;14.10;99.90;;;;;;5051836;28;20208;-78
2023/08/16 05:55:54;;;;;;;3.22;1.63;;;14.00;99.90;;;;;;5051540;28;20165;-76
2023/08/16 05:58:21;;;;;;;3.90;1.83;;;13.90;99.90;;;;;;5051696;28;20181;-77
2023/08/16 06:00:47;;;;;;;2.83;1.58;;;;;;;;;;5051544;28;20173;-77
2023/08/16 06:03:14;;;;;;;2.75;1.70;;;13.80;99.90;;;;;;5051604;28;20262;-77
2023/08/16 06:05:39;;;;;;;3.95;1.58;;;14.00;99.90;;;;;;5051495;28;20231;-79
2023/08/16 06:08:05;;;;;;;2.05;1.48;;;14.10;99.90;;;;;;5061949;28;20651;-77
2023/08/16 06:10:31;;;;;;;4.07;1.80;;;;;;;;;;5061843;28;20204;-78
2023/08/16 06:12:57;;;;;;;7.10;2.20;;;14.20;99.90;;;;;;5051446;28;20207;-78
2023/08/16 06:15:23;;;;;;;4.25;1.63;;;;;;;;;;5051620;28;20170;-78
2023/08/16 06:17:48;;;;;;;3.47;1.80;;;14.20;99.90;;;;;;5050223;28;20235;-78
2023/08/16 06:20:14;;;;;;;7.43;1.90;;;14.10;99.90;;;;;;5033627;28;20587;-78
2023/08/16 06:22:40;;;;;;;3.50;1.77;;;;;;;;;;5051646;28;20173;-78
2023/08/16 06:25:07;;;;;;;6.53;1.90;;;14.20;99.90;;;;;;5049693;28;20623;-78
2023/08/16 06:27:33;;;;;;;5.18;2.03;;;;;;;;;;5049153;28;20220;-78
2023/08/16 06:29:59;;;;;;;6.32;2.13;;;;;;;;;;5051252;28;20303;-77
2023/08/16 06:32:25;;;;;;;3.88;1.90;;;;;;;;;;5046016;28;20169;-77
2023/08/16 06:34:51;;;;;;;3.83;2.10;;;;;;;;;;5048464;28;20185;-78
2023/08/16 06:37:17;;;;;;;5.20;2.58;;;14.50;99.90;;;;;;5050831;28;20635;-78
2023/08/16 06:39:42;;;;;;;4.82;2.03;;;14.70;99.90;;;;;;5050705;28;20169;-77
2023/08/16 06:42:09;;;;;;;4.82;2.50;;;15.50;99.90;;;;;;5051096;28;20512;-77
2023/08/16 06:44:35;;;;;;;10.05;2.50;;;14.80;99.90;;;;;;5051192;28;20181;-77
2023/08/16 06:47:01;;;;;;;4.05;2.42;;;14.90;99.90;;;;;;5053508;28;20169;-79
2023/08/16 06:49:27;;;;;;;4.28;2.50;;;;;;;;;;5051808;28;20264;-79
2023/08/16 06:51:52;;;;;;;6.75;2.97;;;14.90;99.90;;;;;;5031339;28;20173;-79
2023/08/16 06:54:18;;;;;;;7.50;2.88;;;;;;;;;;5031261;28;20572;-78
2023/08/16 06:56:44;;;;;;;4.55;2.50;;;15.10;99.90;;;;;;5040918;28;20169;-78
2023/08/16 06:59:10;;;;;;;7.18;2.88;;;15.30;99.90;;;;;;5050938;28;20203;-76
2023/08/16 07:01:36;;;;;;;5.68;3.10;;;15.30;99.90;;;;;;5049688;28;20209;-75
2023/08/16 07:04:02;;;;;;;5.60;2.70;;;15.30;99.90;;;;;;5050159;28;20212;-77
2023/08/16 07:06:31;;;;;;;6.13;2.70;;;15.50;99.90;;;;;;5050356;28;20170;-77
2023/08/16 07:08:57;;;;;;;5.88;2.65;;;;;;;;;;5050660;28;20173;-76
2023/08/16 07:11:24;;;;;;;5.45;2.88;;;15.60;99.90;;;;;;5051228;28;20161;-76
2023/08/16 07:13:50;;;;;;;5.28;2.90;;;15.70;99.90;;;;;;5049345;28;20299;-75
2023/08/16 07:16:16;;;;;;;4.75;2.97;;;15.60;99.90;;;;;;5049001;28;20326;-78
2023/08/16 07:18:42;;;;;;;6.40;3.30;;;15.80;99.90;;;;;;5050232;28;20641;-80
2023/08/16 07:21:08;;;;;;;3.85;2.80;;;;;;;;;;5049936;28;20243;-80
2023/08/16 07:23:34;;;;;;;7.15;3.33;;;15.80;99.90;;;;;;5050414;28;20655;-80
2023/08/16 07:26:00;;;;;;;5.60;3.30;;;15.70;99.90;;;;;;5050744;28;20205;-80
2023/08/16 07:28:26;;;;;;;5.20;2.63;;;16.00;99.90;;;;;;5037018;28;20256;-80
2023/08/16 07:30:55;;;;;;;4.40;2.80;;;15.90;99.90;;;;;;5029253;28;20188;-78
2023/08/16 07:33:21;;;;;;;6.40;2.90;;;16.00;99.90;;;;;;5037024;28;20686;-80
2023/08/16 07:35:50;;;;;;;4.47;2.83;;;16.10;99.90;;;;;;5050475;28;20252;-78
2023/08/16 07:38:15;;;;;;;8.18;3.42;;;16.20;99.90;;;;;;5050447;28;20642;-79
2023/08/16 07:40:47;;;;;;;4.82;2.95;;;16.20;99.90;;;;;;5050350;28;20169;-79
2023/08/16 07:43:13;;;;;;;5.88;3.10;;;16.20;99.90;;;;;;5049551;28;20854;-78
2023/08/16 07:45:39;;;;;;;7.65;3.20;;;16.30;99.90;;;;;;5050081;28;20225;-82
2023/08/16 07:48:04;;;;;;;6.15;4.00;;;16.40;99.90;;;;;;5050046;28;20656;-81
2023/08/16 07:50:30;;;;;;;6.53;2.85;;;16.40;99.90;;;;;;5050170;28;20652;-80
2023/08/16 07:52:56;;;;;;;7.22;3.30;;;16.50;99.90;;;;;;5049580;28;20579;-80
2023/08/16 07:55:22;;;;;;;7.05;2.80;;;16.70;99.90;;;;;;5049945;28;20188;-79
2023/08/16 07:57:48;;;;;;;6.03;3.13;;;16.80;99.90;;;;;;5053839;28;20174;-80
2023/08/16 08:00:14;;;;;;;5.68;3.15;;;17.00;99.90;;;;;;5053660;28;20170;-80
2023/08/16 08:02:40;;;;;;;4.90;2.67;;;17.00;99.90;;;;;;5053732;28;20196;-80
2023/08/16 08:05:07;;;;;;;5.63;2.92;;;17.10;99.90;;;;;;5071306;28;20196;-78
2023/08/16 08:07:32;;;;;;;3.30;2.10;;;17.40;99.90;;;;;;5055812;28;20246;-77
2023/08/16 08:09:58;;;;;;;2.80;2.35;;;17.40;99.90;;;;;;5053335;28;20608;-82
2023/08/16 08:12:24;;;;;;;4.60;2.58;;;17.50;99.90;;;;;;5053546;28;20197;-79
2023/08/16 08:14:49;;;;;;;5.03;1.92;;;17.70;99.90;;;;;;5053410;28;20726;-79
2023/08/16 08:17:16;;;;;;;2.50;1.58;;;17.90;99.90;;;;;;5053287;28;20257;-79
2023/08/16 08:19:42;;;;;;;2.60;1.30;;;18.10;99.90;;;;;;5052145;28;20188;-78
2023/08/16 08:22:07;;;;;;;4.10;1.40;;;18.30;99.90;;;;;;5053280;28;20173;-76
2023/08/16 08:24:33;;;;;;;2.83;1.20;;;18.60;99.90;;;;;;5053411;28;20178;-79
2023/08/16 08:26:59;;;;;;;1.98;1.30;;;;;;;;;;5053196;28;20228;-76
2023/08/16 08:29:25;;;;;;;3.92;1.15;;;20.10;99.90;;;;;;5052355;28;20655;-76
2023/08/16 08:31:53;;;;;;;2.85;1.25;;;21.00;99.90;;;;;;5052975;28;20177;-77
2023/08/16 08:34:18;;;;;;;6.78;1.40;;;21.80;99.90;;;;;;5052926;28;20212;-77
2023/08/16 08:36:44;;;;;;;2.28;1.02;;;22.10;99.90;;;;;;5052043;28;20169;-77
2023/08/16 08:39:10;;;;;;;5.80;1.38;;;23.00;99.90;;;;;;5052695;28;20335;-79
2023/08/16 08:41:40;;;;;;;4.25;1.05;;;23.70;99.90;;;;;;5053123;28;20169;-78
2023/08/16 08:44:06;;;;;;;4.15;1.10;;;23.70;99.90;;;;;;5063074;28;20209;-81
2023/08/16 08:46:32;;;;;;;19.08;1.92;;;24.40;99.90;;;;;;5057825;28;20169;-81
2023/08/16 08:49:02;;;;;;;4.65;1.20;;;24.40;99.90;;;;;;5052578;28;20184;-80
2023/08/16 08:51:33;;;;;;;3.47;1.13;;;24.90;99.90;;;;;;5053389;28;20181;-82
2023/08/16 08:53:59;;;;;;;4.03;1.40;;;24.70;99.90;;;;;;5052842;28;20201;-80
2023/08/16 08:56:27;;;;;;;4.00;1.08;;;24.80;99.90;;;;;;5051408;28;20176;-82
2023/08/16 08:58:56;;;;;;;6.38;1.02;;;24.70;99.90;;;;;;5051638;28;20170;-78
2023/08/16 09:01:23;;;;;;;6.43;1.92;;;24.80;99.90;;;;;;5052417;28;20632;-79
2023/08/16 09:03:52;;;;;;;3.05;1.10;;;25.10;99.90;;;;;;5051347;28;20252;-78
2023/08/16 09:06:17;;;;;;;4.28;1.10;;;25.10;99.90;;;;;;5052147;28;20188;-80
2023/08/16 09:08:45;;;;;;;3.85;1.25;;;25.60;99.90;;;;;;5052360;28;20599;-78
2023/08/16 09:11:13;;;;;;;6.18;1.52;;;25.10;99.90;;;;;;5051953;28;20674;-79
2023/08/16 09:13:39;;;;;;;6.63;1.27;;;25.30;99.90;;;;;;5050953;28;20209;-78
2023/08/16 09:16:05;;;;;;;2.97;1.00;;;25.40;99.90;;;;;;5051882;28;20173;-79
2023/08/16 09:18:31;;;;;;;5.30;1.25;;;26.30;51.40;;;;;;5052320;28;20171;-79
2023/08/16 09:20:59;;;;;;;2.83;1.27;;;26.50;1.00;;;;;;5052642;28;20673;-80
2023/08/16 09:23:25;;;;;;;2.53;1.10;;;26.40;1.00;;;;;;5060317;28;20252;-81
2023/08/16 09:25:51;;;;;;;5.72;1.13;;;26.10;99.90;;;;;;5051548;28;20200;-79
2023/08/16 09:28:17;;;;;;;4.07;1.13;;;25.30;99.90;;;;;;5051130;28;20181;-79
2023/08/16 09:30:43;;;;;;;5.93;1.60;;;25.50;1.00;;;;;;5051352;28;20201;-80
2023/08/16 09:33:09;;;;;;;3.63;1.10;;;;;;;;;;5051957;28;20204;-79
2023/08/16 09:35:38;;;;;;;2.60;1.20;;;25.00;1.00;;;;;;5045923;28;20208;-80
2023/08/16 09:38:04;;;;;;;1.25;1.00;;;25.50;1.00;;;;;;5046947;28;20213;-79
2023/08/16 09:40:30;;;;;;;3.33;1.30;;;25.00;1.00;;;;;;5047754;28;20193;-78
2023/08/16 09:43:02;;;;;;;3.20;1.25;;;24.80;99.90;;;;;;5051052;28;20687;-78
2023/08/16 09:45:34;;;;;;;3.80;1.27;;;25.00;1.00;;;;;;5051338;28;20209;-78
2023/08/16 09:48:01;;;;;;;2.95;1.30;;;25.00;1.00;;;;;;5050628;28;20184;-79
2023/08/16 09:50:34;;;;;;;2.67;1.23;;;25.00;1.00;;;;;;5052339;28;20196;-78
2023/08/16 09:53:03;;;;;;;1.52;1.00;;;24.60;1.00;;;;;;5042342;28;20391;-78
2023/08/16 09:55:32;;;;;;;3.58;1.08;;;24.70;1.00;;;;;;5030514;28;20217;-79
2023/08/16 09:57:59;;;;;;;2.80;0.80;;;25.20;99.90;;;;;;5042493;28;20173;-79
2023/08/16 10:00:30;;;;;;;5.78;1.50;;;25.20;99.90;;;;;;5051433;28;20704;-80
2023/08/16 10:02:56;;;;;;;4.32;1.20;;;25.00;99.90;;;;;;5051893;28;20189;-78
2023/08/16 10:05:24;;;;;;;5.95;1.00;;;25.30;99.90;;;;;;5051097;28;20252;-78
2023/08/16 10:07:51;;;;;;;3.00;1.08;;;26.20;99.90;;;;;;5047322;28;20177;-78
2023/08/16 10:10:17;;;;;;;4.68;1.20;;;26.60;99.90;;;;;;5049836;28;20189;-77
2023/08/16 10:12:45;;;;;;;4.13;1.00;;;26.80;99.90;;;;;;5051187;28;20200;-78
2023/08/16 10:15:11;;;;;;;2.65;1.02;;;27.00;58.10;;;;;;5044813;28;20185;-79
2023/08/16 10:17:42;;;;;;;5.18;1.10;;;27.50;99.90;;;;;;5050126;28;20173;-79
2023/08/16 10:20:17;;;;;;;4.75;1.30;;;27.40;99.90;;;;;;5051008;28;20218;-79
2023/08/16 10:22:46;;;;;;;3.85;1.50;;;27.80;1.00;;;;;;5050920;28;20161;-79
2023/08/16 10:25:17;;;;;;;4.72;1.20;;;26.90;1.00;;;;;;5051117;28;20173;-79
2023/08/16 10:27:44;;;;;;;4.40;1.30;;;27.10;1.00;;;;;;5046309;28;20216;-79
2023/08/16 10:30:19;;;;;;;4.32;1.35;;;27.70;1.00;;;;;;5045292;28;20177;-79
2023/08/16 10:32:46;;;;;;;5.50;1.20;;;27.80;1.00;;;;;;5049145;28;20188;-78
2023/08/16 10:35:13;;;;;;;4.32;1.20;;;28.20;1.00;;;;;;5050509;28;20176;-77
2023/08/16 10:37:39;;;;;;;8.05;1.55;;;28.60;1.00;;;;;;5049540;28;20211;-77
2023/08/16 10:40:15;;;;;;;2.78;1.17;;;28.80;1.00;;;;;;5051335;28;20651;-80
2023/08/16 10:42:58;;;;;;;7.03;1.42;;;29.70;1.00;;;;;;5049389;28;20169;-79
2023/08/16 10:45:27;;;;;;;3.53;1.30;;;29.90;99.90;;;;;;5050647;28;20173;-81
2023/08/16 10:47:54;;;;;;;3.60;1.30;;;29.80;99.90;;;;;;5050728;28;20188;-77
2023/08/16 10:50:30;;;;;;;2.08;1.10;;;29.70;99.90;;;;;;5050795;28;20169;-77
2023/08/16 10:52:58;;;;;;;2.20;1.00;;;30.50;44.30;;;;;;5050709;28;20287;-76
2023/08/16 10:55:27;;;;;;;3.47;1.15;;;30.50;26.40;;;;;;5050594;28;20201;-77
2023/08/16 10:57:54;;;;;;;4.78;1.02;;;30.70;8.70;;;;;;5033262;28;20196;-76
2023/08/16 11:00:29;;;;;;;1.60;0.90;;;30.80;1.00;;;;;;5050481;28;20195;-79
2023/08/16 11:02:54;;;;;;;5.57;0.77;;;29.70;1.00;;;;;;5050516;28;20661;-78
2023/08/16 11:05:21;;;;;;;2.40;0.88;;;29.30;1.00;;;;;;5050479;28;20176;-77
2023/08/16 11:07:47;;;;;;;7.78;0.80;;;30.10;1.00;;;;;;5050502;28;20160;-76
2023/08/16 11:10:13;;;;;;;3.15;0.85;;;30.30;1.00;;;;;;5050512;28;20538;-78
2023/08/16 11:12:39;;;;;;;2.08;0.80;;;30.90;1.00;;;;;;5050422;28;20252;-80
2023/08/16 11:15:06;;;;;;;1.98;0.73;;;30.90;1.00;;;;;;5050334;28;20267;-80
2023/08/16 11:17:32;;;;;;;0.90;0.70;;;31.30;1.00;;;;;;5049429;28;20184;-79
2023/08/16 11:20:00;;;;;;;1.55;0.80;;;31.50;1.00;;;;;;5050804;28;20187;-80
2023/08/16 11:22:26;;;;;;;2.10;0.80;;;32.70;1.00;;;;;;5050662;28;20165;-79
2023/08/16 11:24:52;;;;;;;4.30;1.10;;;32.20;1.00;;;;;;5050624;28;20233;-80
2023/08/16 11:27:22;;;;;;;4.55;1.15;;;29.80;99.90;;;;;;5050182;28;20217;-79
2023/08/16 11:29:54;;;;;;;3.97;1.10;;;29.00;99.90;;;;;;5041341;28;20176;-79
2023/08/16 11:32:37;;;;;;;1.67;0.77;;;28.30;99.90;;;;;;5033165;28;20181;-79
2023/08/16 11:35:14;;;;;;;2.13;0.80;;;28.30;99.90;;;;;;5034038;28;20659;-75
2023/08/16 11:37:41;;;;;;;3.40;1.00;;;29.70;1.00;;;;;;5034086;28;20639;-75
2023/08/16 11:40:08;;;;;;;2.95;0.93;;;28.60;99.90;;;;;;5032858;28;20188;-75
2023/08/16 11:42:34;;;;;;;1.38;0.77;;;29.60;1.00;;;;;;5034059;28;20177;-75
2023/08/16 11:45:00;;;;;;;4.05;1.00;;;30.60;99.90;;;;;;5032801;28;20552;-75
2023/08/16 11:47:26;;;;;;;3.30;0.80;;;31.20;1.00;;;;;;5034080;28;20738;-76
2023/08/16 11:49:52;;;;;;;3.28;1.00;;;31.20;99.90;;;;;;5032834;28;20173;-76
2023/08/16 11:52:24;;;;;;;3.38;0.98;;;31.10;99.90;;;;;;5033968;28;20169;-76
2023/08/16 11:55:19;;;;;;;1.52;0.90;;;31.80;99.90;;;;;;5033871;28;20201;-74
2023/08/16 11:57:46;;;;;;;1.73;1.00;;;32.90;1.00;;;;;;5015956;28;20177;-74
2023/08/16 12:00:15;;;;;;;2.80;1.02;;;32.80;99.90;;;;;;5032573;28;20231;-76
2023/08/16 12:02:44;;;;;;;3.45;1.10;;;31.70;99.90;;;;;;5046457;28;20180;-74
2023/08/16 12:05:11;;;;;;;2.95;1.00;;;30.80;99.90;;;;;;5053262;28;20223;-74
2023/08/16 12:07:43;;;;;;;2.15;0.88;;;31.10;99.90;;;;;;5053622;28;20490;-80
2023/08/16 12:10:08;;;;;;;4.32;1.00;;;31.70;99.90;;;;;;5051349;28;20643;-78
2023/08/16 12:12:34;;;;;;;2.95;0.90;;;32.80;99.90;;;;;;5053027;28;20171;-79
2023/08/16 12:15:00;;;;;;;2.53;1.10;;;33.50;99.90;;;;;;5052165;28;20185;-78
2023/08/16 12:17:25;;;;;;;3.50;0.98;;;32.40;99.90;;;;;;5053369;28;20179;-76
2023/08/16 12:19:51;;;;;;;1.80;1.00;;;32.50;93.70;;;;;;5051985;28;20202;-80
2023/08/16 12:22:16;;;;;;;1.63;0.93;;;30.80;1.00;;;;;;5053121;28;20259;-76
2023/08/16 12:24:42;;;;;;;4.03;1.13;;;;;;;;;;5053310;28;20169;-76
2023/08/16 12:27:08;;;;;;;3.05;0.93;;;29.60;1.00;;;;;;5052077;28;20672;-76
2023/08/16 12:29:34;;;;;;;2.10;0.93;;;29.30;91.40;;;;;;5051827;28;20188;-76
2023/08/16 12:32:00;;;;;;;2.33;1.15;;;30.50;99.90;;;;;;5053964;28;20172;-76
2023/08/16 12:34:25;;;;;;;3.92;1.10;;;31.30;99.90;;;;;;5052928;28;20299;-77
2023/08/16 12:36:51;;;;;;;2.40;1.05;;;32.20;99.90;;;;;;5052608;28;20173;-76
2023/08/16 12:39:16;;;;;;;2.88;0.90;;;31.40;99.90;;;;;;5052837;28;20755;-76
2023/08/16 12:41:42;;;;;;;1.23;0.70;;;32.30;57.90;;;;;;5052382;28;20575;-77
2023/08/16 12:44:08;;;;;;;2.58;0.90;;;33.20;99.90;;;;;;5052730;28;20663;-77
2023/08/16 12:46:33;;;;;;;3.25;0.95;;;33.70;1.00;;;;;;5052416;28;20169;-77
2023/08/16 12:48:59;;;;;;;2.72;1.17;;;33.90;99.90;;;;;;5050028;28;20616;-75
2023/08/16 12:51:24;;;;;;;4.50;1.10;;;32.60;99.90;;;;;;5032900;28;20177;-76
2023/08/16 12:53:51;;;;;;;2.67;1.20;;;32.60;99.90;;;;;;5038886;28;20212;-75